Time;durP1;ratioP1;P1;durP2;ratioP2;P2;SDS_P1;SDS_P2;PMS_P1;PMS_P2;Temp;Humidity;BMP_temperature;BMP_pressure;BME280_temperature;BME280_humidity;BME280_pressure;Samples;Min_cycle;Max_cycle;Signal;HPM_P1;HPM_P2
2023/06/16 00:00:19;;;;;;;;;;;;;;;23.45;57.02;100648.94;4984181;28;19918;-82
2023/06/16 00:03:03;;;;;;;;;;;;;;;23.23;54.70;100642.66;4998285;28;19914;-79
2023/06/16 00:05:48;;;;;;;;;;;;;;;22.31;53.75;100628.97;4986308;28;20330;-79
2023/06/16 00:08:33;;;;;;;;;;;;;;;22.72;55.48;100632.09;4987045;28;19914;-79
2023/06/16 00:11:17;;;;;;;;;;;;;;;23.09;56.89;100633.59;4961575;28;19917;-80
2023/06/16 00:14:02;;;;;;;;;;;;;;;23.37;56.90;100630.69;4989458;28;19914;-80
2023/06/16 00:16:47;;;;;;;;;;;;;;;23.46;55.03;100627.50;4984861;28;19917;-79
2023/06/16 00:19:32;;;;;;;;;;;;;;;23.53;55.95;100625.47;4991925;28;20305;-80
2023/06/16 00:22:17;;;;;;;;;;;;;;;23.45;55.23;100621.16;4992968;28;19914;-80
2023/06/16 00:25:02;;;;;;;;;;;;;;;23.52;55.80;100620.34;4990215;28;19914;-80
2023/06/16 00:27:47;;;;;;;;;;;;;;;23.56;55.29;100624.69;4979958;28;19913;-79
2023/06/16 00:30:31;;;;;;;;;;;;;;;23.52;53.33;100635.00;4997552;28;19914;-79
2023/06/16 00:33:16;;;;;;;;;;;;;;;23.51;55.28;100633.44;4976454;28;19913;-80
2023/06/16 00:36:00;;;;;;;;;;;;;;;23.57;54.80;100642.91;4991820;28;19918;-79
2023/06/16 00:38:45;;;;;;;;;;;;;;;23.42;52.94;100642.16;4994268;28;19913;-79
2023/06/16 00:41:29;;;;;;;;;;;;;;;23.27;52.93;100640.63;4994405;28;19914;-79
2023/06/16 00:44:14;;;;;;;;;;;;;;;23.50;54.86;100636.59;4982579;28;19913;-78
2023/06/16 00:46:58;;;;;;;;;;;;;;;23.46;54.28;100646.94;4967758;28;19914;-78
2023/06/16 00:49:43;;;;;;;;;;;;;;;23.54;54.20;100649.25;4981402;28;20302;-80
2023/06/16 00:52:29;;;;;;;;;;;;;;;23.24;50.68;100657.31;4981727;28;19918;-80
2023/06/16 00:55:15;;;;;;;;;;;;;;;22.63;53.28;100658.63;4982248;28;19914;-80
2023/06/16 00:57:59;;;;;;;;;;;;;;;22.89;53.86;100658.22;4972603;28;19918;-80
2023/06/16 01:00:45;;;;;;;;;;;;;;;23.15;53.08;100668.84;4975922;28;19914;-79
2023/06/16 01:03:29;;;;;;;;;;;;;;;23.16;53.37;100662.09;4995029;28;19914;-79
2023/06/16 01:06:21;;;;;;;;;;;;;;;22.98;51.88;100656.59;4986330;28;19914;-80
2023/06/16 01:09:14;;;;;;;;;;;;;;;22.93;53.00;100648.69;4995290;28;19913;-81
2023/06/16 01:12:17;;;;;;;;;;;;;;;22.20;54.04;100650.34;4995154;28;20366;-79
2023/06/16 01:15:05;;;;;;;;;;;;;;;22.38;54.48;100644.81;4973615;28;19914;-78
2023/06/16 01:17:54;;;;;;;;;;;;;;;22.84;54.91;100650.31;4972780;28;20399;-78
2023/06/16 01:20:42;;;;;;;;;;;;;;;22.96;52.62;100653.44;4979375;28;19914;-77
2023/06/16 01:23:40;;;;;;;;;;;;;;;23.21;54.54;100660.91;4982917;28;20374;-77
2023/06/16 01:26:28;;;;;;;;;;;;;;;23.38;54.41;100662.78;4995448;28;19913;-79
2023/06/16 01:29:13;;;;;;;;;;;;;;;23.45;54.15;100660.03;4976446;28;20392;-77
2023/06/16 01:32:00;;;;;;;;;;;;;;;23.50;53.85;100658.81;4996928;28;19913;-77
2023/06/16 01:34:45;;;;;;;;;;;;;;;23.51;53.90;100644.53;4981824;28;20379;-77
2023/06/16 01:37:30;;;;;;;;;;;;;;;22.98;53.54;100647.50;4989355;28;19925;-78
2023/06/16 01:40:14;;;;;;;;;;;;;;;23.31;54.26;100648.97;4977900;28;19914;-79
2023/06/16 01:43:00;;;;;;;;;;;;;;;23.42;54.28;100644.94;4995133;28;19914;-79
2023/06/16 01:45:46;;;;;;;;;;;;;;;23.40;52.58;100646.53;4995223;28;19914;-80
2023/06/16 01:48:32;;;;;;;;;;;;;;;23.30;52.35;100639.06;4994538;28;19914;-80
2023/06/16 01:51:19;;;;;;;;;;;;;;;22.88;53.13;100629.69;4980884;28;19913;-80
2023/06/16 01:54:03;;;;;;;;;;;;;;;22.90;55.37;100621.78;4971493;28;19914;-80
2023/06/16 01:56:48;;;;;;;;;;;;;;;22.09;56.42;100621.88;4978784;28;19921;-80
2023/06/16 01:59:33;;;;;;;;;;;;;;;22.46;55.59;100619.44;4988233;28;19914;-79
2023/06/16 02:02:19;;;;;;;;;;;;;;;22.69;56.18;100619.03;5042454;23;19921;-82
2023/06/16 02:05:05;;;;;;;;;;;;;;;23.00;55.16;100626.50;4978563;28;19918;-82
2023/06/16 02:07:52;;;;;;;;;;;;;;;22.95;54.46;100620.56;4992288;28;19918;-82
2023/06/16 02:10:37;;;;;;;;;;;;;;;23.01;55.14;100628.06;5000971;28;19921;-82
2023/06/16 02:13:21;;;;;;;;;;;;;;;22.17;57.04;100617.91;4988967;28;19914;-82
2023/06/16 02:16:06;;;;;;;;;;;;;;;22.52;55.18;100630.94;4965981;28;19917;-82
2023/06/16 02:18:53;;;;;;;;;;;;;;;22.74;56.38;100628.94;4984628;28;19913;-82
2023/06/16 02:21:40;;;;;;;;;;;;;;;23.01;55.35;100628.06;4992595;28;19915;-82
2023/06/16 02:24:25;;;;;;;;;;;;;;;23.17;55.13;100632.34;4993096;28;20294;-82
2023/06/16 02:27:10;;;;;;;;;;;;;;;23.26;54.73;100630.72;4962931;28;19913;-82
2023/06/16 02:29:54;;;;;;;;;;;;;;;23.25;54.29;100631.16;4991749;28;19913;-82
2023/06/16 02:32:39;;;;;;;;;;;;;;;23.25;54.83;100631.16;5014130;28;19913;-82
2023/06/16 02:35:25;;;;;;;;;;;;;;;23.33;54.60;100624.34;4986791;28;19914;-82
2023/06/16 02:38:09;;;;;;;;;;;;;;;23.36;54.49;100626.34;4974724;28;19917;-82
2023/06/16 02:40:54;;;;;;;;;;;;;;;23.38;54.57;100629.50;4997172;28;19929;-82
2023/06/16 02:43:38;;;;;;;;;;;;;;;23.38;54.45;100624.72;4976863;28;19914;-82
2023/06/16 02:46:23;;;;;;;;;;;;;;;23.38;54.50;100621.16;4988664;28;19914;-83
2023/06/16 02:49:08;;;;;;;;;;;;;;;23.37;54.54;100619.56;4962400;28;19913;-82
2023/06/16 02:51:52;;;;;;;;;;;;;;;23.37;54.50;100623.16;4987492;28;19914;-84
2023/06/16 02:54:38;;;;;;;;;;;;;;;23.38;54.26;100635.03;4985863;28;19917;-80
2023/06/16 02:57:22;;;;;;;;;;;;;;;23.32;53.83;100639.44;4979467;28;19926;-81
2023/06/16 03:00:10;;;;;;;;;;;;;;;23.29;53.70;100640.25;4992883;28;19944;-81
2023/06/16 03:03:05;;;;;;;;;;;;;;;23.27;53.88;100642.63;4972594;28;19914;-80
2023/06/16 03:05:50;;;;;;;;;;;;;;;23.27;53.73;100634.28;4984501;28;20378;-80
2023/06/16 03:08:36;;;;;;;;;;;;;;;23.24;53.53;100637.88;4974725;28;19913;-80
2023/06/16 03:11:20;;;;;;;;;;;;;;;23.23;53.53;100628.78;4974444;28;19913;-80
2023/06/16 03:14:11;;;;;;;;;;;;;;;23.21;53.39;100627.59;4970299;28;20479;-80
2023/06/16 03:16:55;;;;;;;;;;;;;;;23.20;53.27;100624.03;4992737;28;19917;-79
2023/06/16 03:19:43;;;;;;;;;;;;;;;23.17;53.10;100627.59;4980822;28;19914;-79
2023/06/16 03:22:28;;;;;;;;;;;;;;;23.13;52.90;100624.06;4980090;28;20307;-80
2023/06/16 03:25:15;;;;;;;;;;;;;;;23.12;52.58;100621.69;4992141;28;19913;-80
2023/06/16 03:28:03;;;;;;;;;;;;;;;23.11;52.55;100620.88;4993200;28;20293;-80
2023/06/16 03:30:48;;;;;;;;;;;;;;;23.09;52.18;100625.28;5003250;28;19921;-79
2023/06/16 03:33:40;;;;;;;;;;;;;;;23.07;52.18;100625.66;4997857;28;19914;-79
2023/06/16 03:36:26;;;;;;;;;;;;;;;23.03;51.97;100631.22;4995613;28;19926;-80
2023/06/16 03:39:11;;;;;;;;;;;;;;;23.02;51.84;100626.88;4989609;28;20307;-79
2023/06/16 03:41:57;;;;;;;;;;;;;;;23.02;51.93;100634.41;4987736;28;20317;-80
2023/06/16 03:44:42;;;;;;;;;;;;;;;23.00;51.97;100626.50;4988447;28;19914;-80
2023/06/16 03:47:27;;;;;;;;;;;;;;;23.00;51.91;100629.28;4977617;28;19914;-80
2023/06/16 03:50:13;;;;;;;;;;;;;;;23.00;51.93;100632.03;4996368;28;19914;-80
2023/06/16 03:53:01;;;;;;;;;;;;;;;23.01;51.79;100639.16;4977739;28;19914;-80
2023/06/16 03:55:47;;;;;;;;;;;;;;;23.00;52.02;100637.59;4964965;28;19914;-79
2023/06/16 03:58:32;;;;;;;;;;;;;;;23.00;51.85;100637.59;5001420;28;20387;-79
2023/06/16 04:01:20;;;;;;;;;;;;;;;22.99;51.71;100636.00;4985497;28;20298;-79
2023/06/16 04:04:06;;;;;;;;;;;;;;;22.99;52.06;100641.56;4975404;28;19921;-79
2023/06/16 04:06:51;;;;;;;;;;;;;;;22.96;52.01;100638.78;4984120;28;20402;-79
2023/06/16 04:09:36;;;;;;;;;;;;;;;22.91;52.09;100637.19;4987503;28;19913;-80
2023/06/16 04:12:20;;;;;;;;;;;;;;;22.89;52.10;100642.38;4987882;28;20399;-80
2023/06/16 04:15:06;;;;;;;;;;;;;;;22.87;52.04;100636.44;5004741;28;19913;-79
2023/06/16 04:17:51;;;;;;;;;;;;;;;22.89;52.06;100633.25;5006795;28;20414;-79
2023/06/16 04:20:35;;;;;;;;;;;;;;;22.90;52.17;100632.88;4992318;28;19935;-79
2023/06/16 04:23:20;;;;;;;;;;;;;;;22.87;52.08;100638.41;4998874;28;19913;-80
2023/06/16 04:26:06;;;;;;;;;;;;;;;22.85;52.18;100636.06;4995884;28;19914;-80
2023/06/16 04:28:53;;;;;;;;;;;;;;;22.84;52.29;100640.00;4980695;28;19914;-80
2023/06/16 04:31:38;;;;;;;;;;;;;;;22.84;52.46;100633.66;4997845;28;19914;-80
2023/06/16 04:34:23;;;;;;;;;;;;;;;22.83;52.38;100632.88;5000031;28;19914;-79
2023/06/16 04:37:11;;;;;;;;;;;;;;;22.82;52.81;100636.03;4978958;28;20371;-80
2023/06/16 04:39:56;;;;;;;;;;;;;;;22.81;53.03;100635.25;4988810;28;19921;-79
2023/06/16 04:42:42;;;;;;;;;;;;;;;22.79;53.02;100634.09;5004920;28;19914;-80
2023/06/16 04:45:27;;;;;;;;;;;;;;;22.82;53.13;100634.06;4969459;28;19922;-80
2023/06/16 04:48:12;;;;;;;;;;;;;;;22.85;53.03;100633.28;5008133;28;19913;-80
2023/06/16 04:50:57;;;;;;;;;;;;;;;22.87;52.68;100632.84;4970082;28;19921;-80
2023/06/16 04:53:43;;;;;;;;;;;;;;;22.84;52.62;100631.69;4990553;28;20114;-81
2023/06/16 04:56:28;;;;;;;;;;;;;;;22.83;52.53;100626.53;4981935;28;19926;-81
2023/06/16 04:59:12;;;;;;;;;;;;;;;22.82;52.18;100625.75;4987447;28;20390;-81
2023/06/16 05:01:56;;;;;;;;;;;;;;;22.83;52.20;100626.53;4972876;28;20333;-79
2023/06/16 05:04:43;;;;;;;;;;;;;;;22.83;51.85;100630.09;4996755;28;19914;-80
2023/06/16 05:07:28;;;;;;;;;;;;;;;22.83;52.13;100626.53;4993095;28;19914;-81
2023/06/16 05:10:12;;;;;;;;;;;;;;;22.82;51.96;100625.75;4994899;28;19917;-80
2023/06/16 05:13:00;;;;;;;;;;;;;;;22.83;51.99;100621.78;4997458;28;19922;-79
2023/06/16 05:15:46;;;;;;;;;;;;;;;22.80;51.99;100625.38;4988555;28;19914;-79
2023/06/16 05:18:31;;;;;;;;;;;;;;;22.74;52.22;100610.34;4997918;28;19917;-80
2023/06/16 05:21:15;;;;;;;;;;;;;;;22.75;52.17;100613.91;4984378;28;19918;-80
2023/06/16 05:24:00;;;;;;;;;;;;;;;22.72;52.22;100618.25;4992850;28;19913;-80
2023/06/16 05:26:45;;;;;;;;;;;;;;;22.75;52.50;100614.69;4984657;28;19914;-79
2023/06/16 05:29:30;;;;;;;;;;;;;;;22.79;52.17;100615.47;4994106;28;19914;-81
2023/06/16 05:32:15;;;;;;;;;;;;;;;22.83;52.61;100619.00;4985117;28;20286;-81
2023/06/16 05:35:00;;;;;;;;;;;;;;;22.85;52.34;100616.66;4992588;28;19913;-81
2023/06/16 05:37:46;;;;;;;;;;;;;;;22.86;52.49;100618.19;4992410;28;20386;-80
2023/06/16 05:40:31;;;;;;;;;;;;;;;22.88;52.62;100623.34;5013175;28;19914;-80
2023/06/16 05:43:16;;;;;;;;;;;;;;;22.89;52.23;100619.41;4981668;28;20310;-81
2023/06/16 05:46:02;;;;;;;;;;;;;;;22.87;52.80;100622.56;5008032;28;19913;-81
2023/06/16 05:48:48;;;;;;;;;;;;;;;22.92;52.89;100624.13;5015034;28;19918;-81
2023/06/16 05:51:32;;;;;;;;;;;;;;;22.91;53.24;100623.34;4998143;28;19914;-81
2023/06/16 05:54:18;;;;;;;;;;;;;;;22.92;53.06;100627.69;4997026;28;19922;-80
2023/06/16 05:57:02;;;;;;;;;;;;;;;22.91;53.14;100634.44;5018957;28;19918;-81
2023/06/16 05:59:49;;;;;;;;;;;;;;;22.92;52.72;100630.47;5009503;28;19913;-81
2023/06/16 06:02:35;;;;;;;;;;;;;;;22.92;52.61;100636.00;5002410;28;19913;-81
2023/06/16 06:05:20;;;;;;;;;;;;;;;22.96;52.23;100642.34;4989025;28;19914;-82
2023/06/16 06:08:05;;;;;;;;;;;;;;;22.92;52.39;100646.31;4987347;28;19913;-82
2023/06/16 06:10:51;;;;;;;;;;;;;;;22.91;52.47;100644.72;5013924;28;19898;-81
2023/06/16 06:13:36;;;;;;;;;;;;;;;23.01;52.28;100655.78;5019632;28;19913;-81
2023/06/16 06:16:21;;;;;;;;;;;;;;;23.07;51.78;100656.16;5001630;28;19913;-80
2023/06/16 06:19:07;;;;;;;;;;;;;;;23.08;51.32;100655.00;5007205;28;19922;-81
2023/06/16 06:21:52;;;;;;;;;;;;;;;23.16;52.28;100666.88;4998097;28;19917;-81
2023/06/16 06:24:37;;;;;;;;;;;;;;;23.21;51.50;100664.44;4994886;28;19914;-80
2023/06/16 06:27:22;;;;;;;;;;;;;;;23.05;51.57;100666.09;4989622;28;20298;-80
2023/06/16 06:30:07;;;;;;;;;;;;;;;23.01;50.95;100666.09;4986905;28;19913;-81
2023/06/16 06:32:53;;;;;;;;;;;;;;;23.05;52.80;100664.13;4992224;28;19914;-80
2023/06/16 06:35:38;;;;;;;;;;;;;;;22.96;52.46;100669.28;4989387;28;19918;-80
2023/06/16 06:38:23;;;;;;;;;;;;;;;23.02;52.52;100674.03;4995775;28;19918;-81
2023/06/16 06:41:08;;;;;;;;;;;;;;;22.93;51.92;100672.88;5002496;28;19917;-81
2023/06/16 06:43:53;;;;;;;;;;;;;;;23.08;52.15;100668.06;4985348;28;19914;-81
2023/06/16 06:46:58;;;;;;;;;;;;;;;22.82;52.85;100677.63;5014127;28;19918;-81
2023/06/16 06:49:43;;;;;;;;;;;;;;;22.98;53.09;100684.34;4992195;28;19914;-81
2023/06/16 06:52:28;;;;;;;;;;;;;;;23.11;52.67;100695.03;5011624;28;19914;-80
2023/06/16 06:55:12;;;;;;;;;;;;;;;23.06;53.76;100690.66;5006803;28;19918;-80
2023/06/16 06:57:57;;;;;;;;;;;;;;;23.18;52.69;100694.97;4985524;28;19926;-80
2023/06/16 07:00:41;;;;;;;;;;;;;;;23.16;53.17;100702.94;4986177;28;20298;-80
2023/06/16 07:03:26;;;;;;;;;;;;;;;23.19;53.06;100702.91;4974898;28;19918;-79
2023/06/16 07:06:11;;;;;;;;;;;;;;;23.27;53.61;100703.66;4996407;28;19913;-79
2023/06/16 07:08:58;;;;;;;;;;;;;;;23.18;53.95;100709.66;4997154;28;20390;-80
2023/06/16 07:11:43;;;;;;;;;;;;;;;23.25;53.76;100720.75;4983912;28;19914;-79
2023/06/16 07:14:29;;;;;;;;;;;;;;;23.25;53.74;100715.19;4985594;28;19914;-79
2023/06/16 07:17:14;;;;;;;;;;;;;;;23.25;53.62;100704.09;4983638;28;19921;-79
2023/06/16 07:19:59;;;;;;;;;;;;;;;23.31;52.68;100702.50;4980420;28;19918;-79
2023/06/16 07:22:45;;;;;;;;;;;;;;;23.33;53.26;100707.63;4991574;28;19914;-80
2023/06/16 07:25:32;;;;;;;;;;;;;;;23.41;52.65;100703.63;4985606;28;19914;-80
2023/06/16 07:28:17;;;;;;;;;;;;;;;23.35;52.38;100699.69;4989945;28;19926;-80
2023/06/16 07:31:01;;;;;;;;;;;;;;;23.42;52.35;100703.22;4997102;28;19914;-80
2023/06/16 07:33:47;;;;;;;;;;;;;;;23.55;51.02;100709.16;4980179;28;19921;-80
2023/06/16 07:36:33;;;;;;;;;;;;;;;23.74;46.15;100702.31;4990188;28;19913;-80
2023/06/16 07:39:18;;;;;;;;;;;;;;;23.75;49.45;100707.47;4982836;28;19913;-78
2023/06/16 07:42:02;;;;;;;;;;;;;;;23.70;49.47;100696.00;4972114;28;19914;-79
2023/06/16 07:44:47;;;;;;;;;;;;;;;23.79;45.36;100699.91;4979923;28;19913;-79
2023/06/16 07:47:32;;;;;;;;;;;;;;;23.91;46.11;100704.22;4981554;28;19913;-79
2023/06/16 07:50:16;;;;;;;;;;;;;;;23.87;48.17;100707.00;4999053;28;19914;-79
2023/06/16 07:53:01;;;;;;;;;;;;;;;23.94;48.23;100705.38;4971065;28;19914;-79
2023/06/16 07:55:45;;;;;;;;;;;;;;;23.90;49.17;100697.06;4998938;28;19914;-79
2023/06/16 07:58:30;;;;;;;;;;;;;;;23.82;48.60;100698.31;4998770;28;20294;-79
2023/06/16 08:01:16;;;;;;;;;;;;;;;23.76;48.90;100686.84;4983405;28;20306;-79
2023/06/16 08:04:00;;;;;;;;;;;;;;;23.87;48.76;100687.53;4991220;28;19922;-79
2023/06/16 08:06:45;;;;;;;;;;;;;;;23.82;48.40;100692.75;4976647;28;19914;-78
2023/06/16 08:09:29;;;;;;;;;;;;;;;23.88;49.11;100689.13;4971573;28;20322;-80
2023/06/16 08:12:14;;;;;;;;;;;;;;;24.24;48.83;100692.50;4983595;28;20373;-79
2023/06/16 08:14:59;;;;;;;;;;;;;;;24.39;48.30;100684.03;4987575;28;19914;-79
2023/06/16 08:17:44;;;;;;;;;;;;;;;24.45;48.08;100691.53;4992435;28;19918;-80
2023/06/16 08:20:29;;;;;;;;;;;;;;;24.67;47.24;100679.03;4985838;28;19917;-80
2023/06/16 08:23:13;;;;;;;;;;;;;;;24.85;47.59;100678.03;4972948;28;19921;-80
2023/06/16 08:25:59;;;;;;;;;;;;;;;24.96;47.04;100670.41;4988104;28;19921;-80
2023/06/16 08:28:44;;;;;;;;;;;;;;;25.04;46.84;100672.69;5000711;28;19914;-80
2023/06/16 08:31:29;;;;;;;314.33;22.85;;;;;;;24.89;47.78;100673.28;4981249;28;20386;-80
2023/06/16 08:34:14;;;;;;;3.60;2.50;;;;;;;24.59;45.45;100669.16;5005703;28;20034;-80
2023/06/16 08:37:01;;;;;;;7.82;2.58;;;;;;;25.47;43.12;100666.59;4989358;28;20053;-80
2023/06/16 08:39:45;;;;;;;3.28;2.33;;;;;;;25.26;48.49;100664.88;4987294;28;20069;-79
2023/06/16 08:42:36;;;;;;;3.38;2.60;;;;;;;25.13;43.27;100658.28;4963775;28;20050;-79
2023/06/16 08:45:22;;;;;;;4.43;2.28;;;;;;;25.17;43.06;100664.59;4978316;28;20046;-79
2023/06/16 08:48:10;;;;;;;7.53;2.42;;;;;;;25.27;47.68;100660.91;4991465;28;20206;-80
2023/06/16 08:50:59;;;;;;;11.73;2.38;;;;;;;25.29;46.90;100661.28;4982720;28;20073;-80
2023/06/16 08:53:47;;;;;;;3.88;1.70;;;;;;;25.28;45.51;100659.69;4980262;28;20053;-81
2023/06/16 08:56:33;;;;;;;4.65;1.92;;;;;;;25.38;39.09;100660.78;4997563;28;20053;-81
2023/06/16 08:59:26;;;;;;;2.90;1.95;;;;;;;25.72;43.14;100667.09;5002744;28;21667;-81
2023/06/16 09:02:12;;;;;;;17.00;2.28;;;;;;;26.04;42.04;100666.63;4971175;28;20438;-82
2023/06/16 09:04:59;;;;;;;7.90;2.22;;;;;;;25.98;42.45;100671.09;4998110;28;20057;-83
2023/06/16 09:07:45;;;;;;;17.23;2.17;;;;;;;25.57;43.26;100667.69;4966623;28;20051;-83
2023/06/16 09:10:29;;;;;;;5.28;2.17;;;;;;;25.24;44.40;100658.16;4953819;28;20054;-82
2023/06/16 09:13:17;;;;;;;7.53;1.95;;;;;;;25.30;44.41;100657.28;4953118;28;20527;-82
2023/06/16 09:16:03;;;;;;;4.75;1.67;;;;;;;25.20;44.00;100660.19;4966841;28;20070;-82
2023/06/16 09:18:49;;;;;;;5.45;1.90;;;;;;;25.11;43.68;100652.34;4954149;28;20050;-82
2023/06/16 09:21:33;;;;;;;3.15;1.92;;;;;;;25.09;43.71;100651.97;4970627;28;20050;-82
2023/06/16 09:24:23;;;;;;;2.97;2.05;;;;;;;25.26;43.94;100645.41;4981309;28;20079;-82
2023/06/16 09:27:10;;;;;;;3.15;1.90;;;;;;;25.31;44.27;100644.94;4967811;28;20049;-82
2023/06/16 09:29:59;;;;;;;4.60;2.05;;;;;;;25.22;44.36;100650.22;4981716;28;20057;-82
2023/06/16 09:32:54;;;;;;;3.60;1.95;;;;;;;25.14;44.63;100638.38;4981599;28;20049;-82
2023/06/16 09:35:41;;;;;;;4.68;1.58;;;;;;;24.88;45.64;100643.88;4959046;28;20049;-81
2023/06/16 09:38:31;;;;;;;7.72;2.50;;;;;;;25.06;45.01;100641.66;4969712;28;20049;-83
2023/06/16 09:41:16;;;;;;;3.55;2.13;;;;;;;25.18;44.87;100634.78;4968342;28;20050;-82
2023/06/16 09:44:02;;;;;;;2.42;1.85;;;;;;;24.99;46.00;100644.56;4971315;28;20058;-82
2023/06/16 09:46:49;;;;;;;4.85;2.25;;;;;;;25.08;45.57;100630.91;4968887;28;20058;-81
2023/06/16 09:49:34;;;;;;;3.20;1.98;;;;;;;24.98;45.77;100637.41;4995440;28;20061;-82
2023/06/16 09:52:25;;;;;;;3.53;1.90;;;;;;;24.95;45.93;100636.22;4977112;28;20053;-82
2023/06/16 09:55:14;;;;;;;5.97;2.65;;;;;;;24.80;46.29;100636.75;4986945;28;20050;-82
2023/06/16 09:57:59;;;;;;;4.00;2.00;;;;;;;24.63;46.75;100639.34;4986383;28;20049;-81
2023/06/16 10:00:44;;;;;;;11.95;2.33;;;;;;;24.52;47.30;100635.06;4976429;28;20045;-82
2023/06/16 10:03:33;;;;;;;5.53;2.63;;;;;;;24.47;47.20;100641.09;4974351;28;20057;-82
2023/06/16 10:06:20;;;;;;;2.83;1.73;;;;;;;24.62;46.79;100634.97;4987829;28;20049;-82
2023/06/16 10:09:09;;;;;;;2.45;2.00;;;;;;;24.62;46.97;100634.97;4979444;28;20061;-83
2023/06/16 10:11:57;;;;;;;6.70;1.98;;;;;;;24.57;47.00;100631.84;4988685;28;20415;-83
2023/06/16 10:14:43;;;;;;;2.42;1.83;;;;;;;24.60;46.95;100622.66;4995717;28;20052;-83
2023/06/16 10:17:32;;;;;;;4.50;2.30;;;;;;;24.59;47.17;100619.09;5007107;28;20521;-83
2023/06/16 10:20:20;;;;;;;4.95;2.45;;;;;;;24.69;46.88;100614.63;4996070;28;20048;-83
2023/06/16 10:23:06;;;;;;;5.13;2.30;;;;;;;24.66;47.29;100616.25;5007531;28;20049;-82
2023/06/16 10:25:51;;;;;;;8.55;2.20;;;;;;;24.75;47.33;100609.41;5006456;28;20061;-83
2023/06/16 10:28:36;;;;;;;4.43;2.10;;;;;;;24.86;46.83;100615.63;5006705;28;20049;-83
2023/06/16 10:31:23;;;;;;;2.92;2.20;;;;;;;24.69;47.82;100607.06;5006626;28;20053;-83
2023/06/16 10:34:17;;;;;;;4.00;2.08;;;;;;;24.61;47.77;100602.00;5020602;28;20057;-82
2023/06/16 10:37:02;;;;;;;3.93;1.93;;;;;;;24.55;47.83;100607.22;5021557;28;20053;-83
2023/06/16 10:39:46;;;;;;;5.32;2.28;;;;;;;24.52;48.18;100596.94;5007227;28;20533;-82
2023/06/16 10:42:35;;;;;;;3.95;2.13;;;;;;;24.55;48.07;100596.09;4991843;28;20066;-83
2023/06/16 10:45:25;;;;;;;4.03;1.90;;;;;;;24.51;47.96;100598.13;4975323;28;20049;-83
2023/06/16 10:48:11;;;;;;;3.15;1.83;;;;;;;24.47;48.06;100594.63;4985042;28;20052;-81
2023/06/16 10:51:00;;;;;;;3.08;2.25;;;;;;;24.49;47.43;100596.97;4994681;28;20053;-83
2023/06/16 10:53:44;;;;;;;3.92;2.38;;;;;;;24.66;45.94;100587.66;4998675;28;20048;-81
2023/06/16 10:56:59;;;;;;;4.57;1.90;;;;;;;24.93;46.14;100574.66;5006025;28;20049;-82
2023/06/16 10:59:50;;;;;;;5.43;1.95;;;;;;;25.07;45.37;100570.91;5020812;28;20049;-82
2023/06/16 11:02:35;;;;;;;8.90;2.45;;;;;;;25.02;45.91;100571.34;5005522;28;20053;-82
2023/06/16 11:05:22;;;;;;;4.10;2.28;;;;;;;24.73;46.66;100573.69;4996889;28;20052;-82
2023/06/16 11:08:08;;;;;;;4.55;2.00;;;;;;;24.59;46.98;100569.03;5008745;28;20418;-82
2023/06/16 11:10:57;;;;;;;3.03;2.08;;;;;;;24.63;47.07;100558.69;4991662;28;20060;-82
2023/06/16 11:13:42;;;;;;;4.80;2.63;;;;;;;24.89;46.01;100554.41;4990561;28;20427;-83
2023/06/16 11:16:27;;;;;;;3.38;2.28;;;;;;;24.91;46.60;100552.00;4975626;28;20062;-83
2023/06/16 11:19:13;;;;;;;4.63;2.40;;;;;;;24.94;46.40;100556.72;4986460;28;20069;-82
2023/06/16 11:21:59;;;;;;;3.03;1.80;;;;;;;24.94;46.39;100550.41;4985565;28;20053;-82
2023/06/16 11:24:44;;;;;;;4.75;2.58;;;;;;;24.89;46.61;100554.41;4975286;28;20049;-82
2023/06/16 11:27:32;;;;;;;3.60;2.38;;;;;;;24.87;47.08;100547.66;4986433;28;20691;-82
2023/06/16 11:30:17;;;;;;;2.53;1.85;;;;;;;24.79;47.13;100540.63;4999924;28;20053;-82
2023/06/16 11:33:03;;;;;;;4.35;2.10;;;;;;;24.68;47.28;100540.75;4972548;28;20065;-82
2023/06/16 11:35:48;;;;;;;3.00;2.25;;;;;;;24.70;47.62;100533.56;4985099;28;20065;-82
2023/06/16 11:38:33;;;;;;;3.75;2.28;;;;;;;24.93;46.14;100532.13;4989349;28;20057;-83
2023/06/16 11:41:27;;;;;;;4.22;2.35;;;;;;;25.18;45.82;100527.00;4979002;28;20535;-82
2023/06/16 11:44:14;;;;;;;3.30;2.30;;;;;;;25.51;44.66;100528.91;4993440;28;20052;-82
2023/06/16 11:46:59;;;;;;;11.23;2.63;;;;;;;25.39;45.37;100537.06;4980241;28;20049;-82
2023/06/16 11:49:44;;;;;;;5.07;2.15;;;;;;;25.53;44.81;100528.47;4997931;28;20049;-82
2023/06/16 11:52:30;;;;;;;3.50;2.55;;;;;;;25.33;45.48;100525.59;4991861;28;20545;-82
2023/06/16 11:55:15;;;;;;;5.45;2.30;;;;;;;25.31;45.53;100528.00;5003822;28;20061;-82
2023/06/16 11:57:59;;;;;;;3.53;2.85;;;;;;;25.12;46.58;100528.69;4991750;28;20045;-82
2023/06/16 12:00:46;;;;;;;2.33;2.13;;;;;;;24.99;47.15;100531.22;4972667;28;20053;-82
2023/06/16 12:03:35;;;;;;;4.82;2.50;;;;;;;25.13;46.40;100522.72;4980583;28;20053;-83
2023/06/16 12:06:22;;;;;;;8.57;2.58;;;;;;;24.93;47.48;100519.00;4971932;28;20066;-82
2023/06/16 12:09:07;;;;;;;2.65;2.15;;;;;;;24.78;47.72;100511.22;4991794;28;20049;-81
2023/06/16 12:11:52;;;;;;;2.70;2.03;;;;;;;24.77;47.66;100506.88;5018283;28;20056;-82
2023/06/16 12:14:37;;;;;;;3.05;2.20;;;;;;;24.82;47.67;100509.97;5008018;28;20053;-82
2023/06/16 12:17:22;;;;;;;;;;;;;;;24.66;47.96;100513.34;5007142;28;20525;-81
2023/06/16 12:20:10;;;;;;;3.30;2.25;;;;;;;24.64;47.89;100503.84;5004118;28;20310;-82
2023/06/16 12:22:55;;;;;;;3.70;2.53;;;;;;;24.73;47.35;100500.56;4991720;28;20073;-81
2023/06/16 12:25:40;;;;;;;9.50;2.20;;;;;;;24.70;47.54;100500.19;5006072;28;20057;-82
2023/06/16 12:28:26;;;;;;;4.25;2.30;;;;;;;24.71;47.61;100500.97;5003803;28;20049;-82
2023/06/16 12:31:11;;;;;;;2.80;2.20;;;;;;;24.86;46.97;100498.78;4977075;28;20062;-82
2023/06/16 12:33:57;;;;;;;4.18;2.25;;;;;;;24.98;46.38;100485.16;4990846;28;20056;-80
2023/06/16 12:36:42;;;;;;;4.30;2.83;;;;;;;25.18;45.80;100490.84;4985486;28;20045;-80
2023/06/16 12:39:27;;;;;;;6.80;2.60;;;;;;;25.25;45.57;100499.06;4988867;28;20053;-83
2023/06/16 12:42:12;;;;;;;5.25;3.10;;;;;;;25.37;45.38;100490.13;4988176;28;20049;-81
2023/06/16 12:45:02;;;;;;;5.90;2.90;;;;;;;25.41;44.36;100484.50;4987625;28;20053;-81
2023/06/16 12:47:47;;;;;;;4.35;2.75;;;;;;;25.23;46.01;100490.34;5001529;28;20061;-81
2023/06/16 12:50:31;;;;;;;;;;;;;;;25.33;45.12;100489.41;5016624;28;20061;-82
2023/06/16 12:53:16;;;;;;;3.35;2.50;;;;;;;25.33;45.70;100489.41;4987971;28;19914;-82
2023/06/16 12:56:01;;;;;;;4.75;2.70;;;;;;;25.75;43.45;100493.50;5001587;28;20053;-80
2023/06/16 12:58:46;;;;;;;2.60;2.10;;;;;;;25.62;44.30;100486.97;4999450;28;20045;-82
2023/06/16 13:01:30;;;;;;;;;;;;;;;25.43;45.71;100494.03;4988788;28;20053;-82
2023/06/16 13:04:15;;;;;;;5.25;2.83;;;;;;;25.28;45.80;100495.44;5004881;28;19914;-82
2023/06/16 13:06:59;;;;;;;5.63;2.28;;;;;;;25.21;46.10;100497.53;4991531;28;20053;-81
2023/06/16 13:09:44;;;;;;;4.78;2.33;;;;;;;25.06;46.50;100497.75;4991635;28;20041;-82
2023/06/16 13:12:29;;;;;;;6.50;2.80;;;;;;;24.94;46.66;100478.06;4990303;28;20054;-81
2023/06/16 13:15:14;;;;;;;;;;;;;;;24.81;47.20;100488.94;4982137;28;20054;-81
2023/06/16 13:17:58;;;;;;;4.30;3.10;;;;;;;24.68;47.23;100482.34;5003800;28;19913;-82
2023/06/16 13:20:44;;;;;;;5.05;2.40;;;;;;;24.68;47.45;100485.13;4979696;28;20050;-82
2023/06/16 13:23:29;;;;;;;4.82;2.90;;;;;;;24.77;46.99;100473.50;4986862;28;20057;-82
2023/06/16 13:26:20;;;;;;;3.75;2.70;;;;;;;24.54;47.36;100471.38;5001336;28;20411;-81
2023/06/16 13:29:05;;;;;;;6.15;3.10;;;;;;;24.45;47.78;100465.53;5001747;28;20049;-81
2023/06/16 13:31:50;;;;;;;3.25;2.90;;;;;;;24.49;47.55;100455.97;4987038;28;20057;-81
2023/06/16 13:34:34;;;;;;;4.75;3.00;;;;;;;24.57;47.47;100465.81;5001268;28;20523;-81
2023/06/16 13:37:19;;;;;;;3.38;2.42;;;;;;;24.55;47.43;100459.84;4982637;28;20530;-81
2023/06/16 13:40:04;;;;;;;;;;;;;;;24.54;47.54;100465.81;4976824;28;20049;-81